createdAt,value
2017-11-29T00:01:06.411Z,1006.66
2017-11-29T00:02:08.287Z,1006.69
2017-11-29T00:03:10.163Z,1006.69
2017-11-29T00:04:12.040Z,1006.75
2017-11-29T00:05:13.854Z,1006.70
2017-11-29T00:06:15.665Z,1006.72
2017-11-29T00:07:17.542Z,1006.71
2017-11-29T00:08:19.421Z,1006.71
2017-11-29T00:09:21.295Z,1006.72
2017-11-29T00:10:35.442Z,1006.73
2017-11-29T00:11:37.318Z,1006.74
2017-11-29T00:12:39.214Z,1006.72
2017-11-29T00:13:41.075Z,1006.73
2017-11-29T00:14:42.888Z,1006.72
2017-11-29T00:15:44.701Z,1006.71
2017-11-29T00:16:46.577Z,1006.73
2017-11-29T00:17:48.452Z,1006.71
2017-11-29T00:18:50.325Z,1006.73
2017-11-29T00:20:04.471Z,1006.73
2017-11-29T00:21:06.348Z,1006.70
2017-11-29T00:22:08.226Z,1006.73
2017-11-29T00:23:10.098Z,1006.71
2017-11-29T00:24:11.914Z,1006.74
2017-11-29T00:25:13.727Z,1006.76
2017-11-29T00:26:15.599Z,1006.76
2017-11-29T00:27:17.481Z,1006.71
2017-11-29T00:28:19.354Z,1006.72
2017-11-29T00:29:33.496Z,1006.71
2017-11-29T00:30:35.369Z,1006.72
2017-11-29T00:31:37.247Z,1006.74
2017-11-29T00:32:39.121Z,1006.73
2017-11-29T00:33:40.935Z,1006.73
2017-11-29T00:34:42.747Z,1006.76
2017-11-29T00:35:44.621Z,1006.74
2017-11-29T00:36:46.497Z,1006.73
2017-11-29T00:37:48.372Z,1006.77
2017-11-29T00:39:02.518Z,1006.78
2017-11-29T00:40:04.394Z,1006.78
2017-11-29T00:41:06.272Z,1006.78
2017-11-29T00:42:08.152Z,1006.78
2017-11-29T00:43:09.963Z,1006.80
2017-11-29T00:44:11.777Z,1006.76
2017-11-29T00:45:13.646Z,1006.74
2017-11-29T00:46:15.524Z,1006.76
2017-11-29T00:47:17.397Z,1006.72
2017-11-29T00:48:31.591Z,1006.77
2017-11-29T00:49:33.468Z,1006.76
2017-11-29T00:50:35.346Z,1006.82
2017-11-29T00:51:37.221Z,1006.78
2017-11-29T00:52:39.034Z,1006.74
2017-11-29T00:53:40.847Z,1006.79
2017-11-29T00:54:42.721Z,1006.77
2017-11-29T00:55:44.603Z,1006.79
2017-11-29T00:56:46.473Z,1006.79
2017-11-29T00:58:00.618Z,1006.77
2017-11-29T00:59:02.495Z,1006.76
2017-11-29T01:00:04.376Z,1006.78
2017-11-29T01:01:06.251Z,1006.78
2017-11-29T01:02:08.065Z,1006.79
2017-11-29T01:03:09.878Z,1006.82
2017-11-29T01:04:11.752Z,1006.74
2017-11-29T01:05:13.631Z,1006.75
2017-11-29T01:06:15.506Z,1006.76
2017-11-29T01:07:29.633Z,1006.76
2017-11-29T01:08:31.447Z,1006.76
2017-11-29T01:09:33.261Z,1006.76
2017-11-29T01:10:35.078Z,1006.78
2017-11-29T01:11:36.884Z,1006.76
2017-11-29T01:12:38.762Z,1006.74
2017-11-29T01:13:40.636Z,1006.77
2017-11-29T01:14:42.490Z,1006.80
2017-11-29T01:15:44.303Z,1006.79
2017-11-29T01:16:58.446Z,1006.80
2017-11-29T01:18:00.334Z,1006.82
2017-11-29T01:19:02.207Z,1006.77
2017-11-29T01:20:04.082Z,1006.79
2017-11-29T01:21:05.899Z,1006.78
2017-11-29T01:22:07.718Z,1006.81
2017-11-29T01:23:09.588Z,1006.78
2017-11-29T01:24:11.463Z,1006.76
2017-11-29T01:25:13.336Z,1006.78
2017-11-29T01:26:27.480Z,1006.75
2017-11-29T01:27:29.369Z,1006.79
2017-11-29T01:28:31.246Z,1006.81
2017-11-29T01:29:33.121Z,1006.79
2017-11-29T01:30:34.934Z,1006.78
2017-11-29T01:31:36.747Z,1006.83
2017-11-29T01:32:38.623Z,1006.76
2017-11-29T01:33:40.501Z,1006.78
2017-11-29T01:34:42.384Z,1006.72
2017-11-29T01:35:56.520Z,1006.76
2017-11-29T01:36:58.397Z,1006.76
2017-11-29T01:38:00.279Z,1006.74
2017-11-29T01:39:02.151Z,1006.73
2017-11-29T01:40:03.967Z,1006.74
2017-11-29T01:41:05.784Z,1006.75
2017-11-29T01:42:07.672Z,1006.73
2017-11-29T01:43:09.548Z,1006.72
2017-11-29T01:44:11.423Z,1006.72
2017-11-29T01:45:25.570Z,1006.65
2017-11-29T01:46:27.446Z,1006.72
2017-11-29T01:47:29.326Z,1006.69
2017-11-29T01:48:31.201Z,1006.67
2017-11-29T01:49:33.014Z,1006.71
2017-11-29T01:50:34.827Z,1006.66
2017-11-29T01:51:36.701Z,1006.69
2017-11-29T01:52:38.578Z,1006.67
2017-11-29T01:53:40.457Z,1006.72
2017-11-29T01:54:54.606Z,1006.65
2017-11-29T01:55:56.477Z,1006.62
2017-11-29T01:56:58.357Z,1006.63
2017-11-29T01:58:00.230Z,1006.63
2017-11-29T01:59:02.044Z,1006.62
2017-11-29T02:00:03.857Z,1006.65
2017-11-29T02:01:05.748Z,1006.66
2017-11-29T02:02:07.610Z,1006.65
2017-11-29T02:03:09.485Z,1006.70
2017-11-29T02:04:23.635Z,1006.67
2017-11-29T02:05:25.511Z,1006.68
2017-11-29T02:06:27.388Z,1006.67
2017-11-29T02:07:29.261Z,1006.67
2017-11-29T02:08:31.076Z,1006.67
2017-11-29T02:09:32.887Z,1006.66
2017-11-29T02:10:34.761Z,1006.64
2017-11-29T02:11:36.641Z,1006.67
2017-11-29T02:12:38.513Z,1006.70
2017-11-29T02:13:52.709Z,1006.67
2017-11-29T02:14:54.596Z,1006.67
2017-11-29T02:15:56.461Z,1006.67
2017-11-29T02:16:58.338Z,1006.65
2017-11-29T02:18:00.150Z,1006.65
2017-11-29T02:19:01.963Z,1006.69
2017-11-29T02:20:03.839Z,1006.69
2017-11-29T02:21:05.715Z,1006.66
2017-11-29T02:22:07.590Z,1006.68
2017-11-29T02:23:21.747Z,1006.72
2017-11-29T02:24:23.624Z,1006.72
2017-11-29T02:25:25.501Z,1006.71
2017-11-29T02:26:27.376Z,1006.69
2017-11-29T02:27:29.188Z,1006.68
2017-11-29T02:28:31.021Z,1006.67
2017-11-29T02:29:32.894Z,1006.68
2017-11-29T02:30:34.770Z,1006.62
2017-11-29T02:31:36.653Z,1006.62
2017-11-29T02:32:50.798Z,1006.58
2017-11-29T02:33:52.672Z,1006.55
2017-11-29T02:34:54.552Z,1006.55
2017-11-29T02:35:56.426Z,1006.47
2017-11-29T02:36:58.239Z,1006.43
2017-11-29T02:38:00.046Z,1006.44
2017-11-29T02:39:01.924Z,1006.40
2017-11-29T02:40:03.802Z,1006.42
2017-11-29T02:41:05.683Z,1006.40
2017-11-29T02:42:19.824Z,1006.37
2017-11-29T02:43:21.699Z,1006.35
2017-11-29T02:44:23.576Z,1006.30
2017-11-29T02:45:25.453Z,1006.33
2017-11-29T02:46:27.261Z,1006.30
2017-11-29T02:47:29.074Z,1006.28
2017-11-29T02:48:30.949Z,1006.31
2017-11-29T02:49:32.829Z,1006.33
2017-11-29T02:50:34.704Z,1006.36
2017-11-29T02:51:48.852Z,1006.35
2017-11-29T02:52:50.727Z,1006.35
2017-11-29T02:53:52.604Z,1006.38
2017-11-29T02:54:54.482Z,1006.36
2017-11-29T02:55:56.297Z,1006.40
2017-11-29T02:56:58.107Z,1006.35
2017-11-29T02:57:59.979Z,1006.34
2017-11-29T02:59:01.858Z,1006.32
2017-11-29T03:00:03.733Z,1006.32
2017-11-29T03:01:17.880Z,1006.37
2017-11-29T03:02:19.757Z,1006.40
2017-11-29T03:03:21.637Z,1006.37
2017-11-29T03:04:23.513Z,1006.40
2017-11-29T03:05:25.321Z,1006.40
2017-11-29T03:06:27.133Z,1006.39
2017-11-29T03:07:29.008Z,1006.36
2017-11-29T03:08:30.887Z,1006.40
2017-11-29T03:09:32.764Z,1006.36
2017-11-29T03:10:46.912Z,1006.38
2017-11-29T03:11:48.786Z,1006.36
2017-11-29T03:12:50.664Z,1006.36
2017-11-29T03:13:52.540Z,1006.38
2017-11-29T03:14:54.352Z,1006.34
2017-11-29T03:15:56.163Z,1006.34
2017-11-29T03:16:58.039Z,1006.35
2017-11-29T03:17:59.918Z,1006.33
2017-11-29T03:19:01.795Z,1006.34
2017-11-29T03:20:15.941Z,1006.32
2017-11-29T03:21:17.815Z,1006.31
2017-11-29T03:22:19.693Z,1006.30
2017-11-29T03:23:21.575Z,1006.35
2017-11-29T03:24:23.380Z,1006.32
2017-11-29T03:25:25.193Z,1006.37
2017-11-29T03:26:27.069Z,1006.35
2017-11-29T03:27:28.948Z,1006.39
2017-11-29T03:28:30.824Z,1006.38
2017-11-29T03:29:44.971Z,1006.37
2017-11-29T03:30:46.845Z,1006.34
2017-11-29T03:31:48.720Z,1006.37
2017-11-29T03:32:50.594Z,1006.33
2017-11-29T03:33:52.407Z,1006.35
2017-11-29T03:34:54.218Z,1006.34
2017-11-29T03:35:56.093Z,1006.35
2017-11-29T03:36:57.987Z,1006.38
2017-11-29T03:37:59.857Z,1006.34
2017-11-29T03:39:14.052Z,1006.33
2017-11-29T03:40:15.926Z,1006.32
2017-11-29T03:41:17.808Z,1006.34
2017-11-29T03:42:19.710Z,1006.34
2017-11-29T03:43:21.635Z,1006.32
2017-11-29T03:44:23.540Z,1006.35
2017-11-29T03:45:25.449Z,1006.37
2017-11-29T03:46:27.328Z,1006.34
2017-11-29T03:47:29.218Z,1006.32
2017-11-29T03:48:43.369Z,1006.32
2017-11-29T03:49:45.245Z,1006.30
2017-11-29T03:50:47.124Z,1006.31
2017-11-29T03:51:48.999Z,1006.29
2017-11-29T03:52:50.810Z,1006.31
2017-11-29T03:53:52.623Z,1006.31
2017-11-29T03:54:54.499Z,1006.34
2017-11-29T03:55:56.381Z,1006.33
2017-11-29T03:56:58.254Z,1006.33
2017-11-29T03:58:12.400Z,1006.33
2017-11-29T03:59:14.273Z,1006.33
2017-11-29T04:00:16.152Z,1006.34
2017-11-29T04:01:18.027Z,1006.35
2017-11-29T04:02:19.840Z,1006.37
2017-11-29T04:03:21.659Z,1006.35
2017-11-29T04:04:23.529Z,1006.36
2017-11-29T04:05:25.408Z,1006.34
2017-11-29T04:06:27.282Z,1006.29
2017-11-29T04:07:41.431Z,1006.37
2017-11-29T04:08:43.310Z,1006.33
2017-11-29T04:09:45.190Z,1006.35
2017-11-29T04:10:47.066Z,1006.28
2017-11-29T04:11:48.879Z,1006.34
2017-11-29T04:12:50.692Z,1006.33
2017-11-29T04:13:52.569Z,1006.33
2017-11-29T04:14:54.449Z,1006.33
2017-11-29T04:15:56.324Z,1006.31
2017-11-29T04:17:10.472Z,1006.36
2017-11-29T04:18:12.345Z,1006.32
2017-11-29T04:19:14.220Z,1006.32
2017-11-29T04:20:16.096Z,1006.34
2017-11-29T04:21:17.908Z,1006.40
2017-11-29T04:22:19.720Z,1006.34
2017-11-29T04:23:21.594Z,1006.29
2017-11-29T04:24:23.482Z,1006.30
2017-11-29T04:25:25.352Z,1006.33
2017-11-29T04:26:39.481Z,1006.31
2017-11-29T04:27:41.286Z,1006.30
2017-11-29T04:28:43.098Z,1006.29
2017-11-29T04:29:44.936Z,1006.32
2017-11-29T04:30:46.810Z,1006.30
2017-11-29T04:31:48.685Z,1006.32
2017-11-29T04:32:50.511Z,1006.34
2017-11-29T04:33:52.325Z,1006.31
2017-11-29T04:34:54.138Z,1006.32
2017-11-29T04:36:08.348Z,1006.31
2017-11-29T04:37:10.227Z,1006.29
2017-11-29T04:38:12.098Z,1006.32
2017-11-29T04:39:13.972Z,1006.30
2017-11-29T04:40:15.786Z,1006.30
2017-11-29T04:41:17.594Z,1006.32
2017-11-29T04:42:19.473Z,1006.32
2017-11-29T04:43:21.350Z,1006.35
2017-11-29T04:44:23.229Z,1006.37
2017-11-29T04:45:37.375Z,1006.32
2017-11-29T04:46:39.247Z,1006.36
2017-11-29T04:47:41.125Z,1006.32
2017-11-29T04:48:43.002Z,1006.31
2017-11-29T04:49:44.811Z,1006.27
2017-11-29T04:50:46.623Z,1006.26
2017-11-29T04:51:48.498Z,1006.23
2017-11-29T04:52:50.382Z,1006.21
2017-11-29T04:53:52.253Z,1006.22
2017-11-29T04:55:06.401Z,1006.23
2017-11-29T04:56:08.270Z,1006.21
2017-11-29T04:57:10.146Z,1006.20
2017-11-29T04:58:12.023Z,1006.17
2017-11-29T04:59:13.835Z,1006.16
2017-11-29T05:00:15.649Z,1006.18
2017-11-29T05:01:17.520Z,1006.16
2017-11-29T05:02:19.401Z,1006.17
2017-11-29T05:03:21.277Z,1006.18
2017-11-29T05:04:35.470Z,1006.17
2017-11-29T05:05:37.345Z,1006.15
2017-11-29T05:06:39.222Z,1006.19
2017-11-29T05:07:41.100Z,1006.20
2017-11-29T05:08:42.924Z,1006.22
2017-11-29T05:09:44.727Z,1006.23
2017-11-29T05:10:46.601Z,1006.22
2017-11-29T05:11:48.481Z,1006.29
2017-11-29T05:12:50.358Z,1006.28
2017-11-29T05:14:04.504Z,1006.30
2017-11-29T05:15:06.377Z,1006.29
2017-11-29T05:16:08.255Z,1006.28
2017-11-29T05:17:10.132Z,1006.29
2017-11-29T05:18:11.943Z,1006.24
2017-11-29T05:19:13.755Z,1006.27
2017-11-29T05:20:15.633Z,1006.27
2017-11-29T05:21:17.514Z,1006.27
2017-11-29T05:22:19.386Z,1006.24
2017-11-29T05:23:33.531Z,1006.26
2017-11-29T05:24:35.406Z,1006.25
2017-11-29T05:25:37.287Z,1006.28
2017-11-29T05:26:39.160Z,1006.24
2017-11-29T05:27:40.973Z,1006.28
2017-11-29T05:28:42.784Z,1006.29
2017-11-29T05:29:44.660Z,1006.29
2017-11-29T05:30:46.503Z,1006.31
2017-11-29T05:31:48.316Z,1006.32
2017-11-29T05:33:02.459Z,1006.30
2017-11-29T05:34:04.344Z,1006.33
2017-11-29T05:35:06.219Z,1006.32
2017-11-29T05:36:08.099Z,1006.34
2017-11-29T05:37:09.909Z,1006.37
2017-11-29T05:38:11.721Z,1006.39
2017-11-29T05:39:13.596Z,1006.34
2017-11-29T05:40:15.480Z,1006.41
2017-11-29T05:41:17.350Z,1006.40
2017-11-29T05:42:31.494Z,1006.40
2017-11-29T05:43:33.370Z,1006.43
2017-11-29T05:44:35.253Z,1006.38
2017-11-29T05:45:37.130Z,1006.39
2017-11-29T05:46:38.941Z,1006.39
2017-11-29T05:47:40.752Z,1006.40
2017-11-29T05:48:42.630Z,1006.38
2017-11-29T05:49:44.509Z,1006.39
2017-11-29T05:50:46.422Z,1006.40
2017-11-29T05:52:00.535Z,1006.39
2017-11-29T05:53:02.411Z,1006.42
2017-11-29T05:54:04.289Z,1006.43
2017-11-29T05:55:06.165Z,1006.43
2017-11-29T05:56:07.975Z,1006.44
2017-11-29T05:57:09.791Z,1006.45
2017-11-29T05:58:11.667Z,1006.45
2017-11-29T05:59:13.546Z,1006.47
2017-11-29T06:00:15.437Z,1006.45
2017-11-29T06:01:29.573Z,1006.45
2017-11-29T06:02:31.447Z,1006.45
2017-11-29T06:03:33.325Z,1006.46
2017-11-29T06:04:35.201Z,1006.46
2017-11-29T06:05:37.013Z,1006.42
2017-11-29T06:06:38.824Z,1006.40
2017-11-29T06:07:40.700Z,1006.42
2017-11-29T06:08:42.579Z,1006.43
2017-11-29T06:09:44.456Z,1006.44
2017-11-29T06:10:58.602Z,1006.43
2017-11-29T06:12:00.474Z,1006.44
2017-11-29T06:13:02.352Z,1006.42
2017-11-29T06:14:04.229Z,1006.45
2017-11-29T06:15:06.040Z,1006.42
2017-11-29T06:16:07.854Z,1006.47
2017-11-29T06:17:09.732Z,1006.45
2017-11-29T06:18:11.612Z,1006.45
2017-11-29T06:19:13.489Z,1006.44
2017-11-29T06:20:27.684Z,1006.48
2017-11-29T06:21:29.557Z,1006.47
2017-11-29T06:22:31.437Z,1006.47
2017-11-29T06:23:33.314Z,1006.51
2017-11-29T06:24:35.126Z,1006.51
2017-11-29T06:25:36.939Z,1006.49
2017-11-29T06:26:38.821Z,1006.49
2017-11-29T06:27:40.699Z,1006.51
2017-11-29T06:28:42.578Z,1006.47
2017-11-29T06:29:56.775Z,1006.51
2017-11-29T06:30:58.658Z,1006.50
2017-11-29T06:32:00.535Z,1006.52
2017-11-29T06:33:02.411Z,1006.48
2017-11-29T06:34:04.229Z,1006.50
2017-11-29T06:35:06.043Z,1006.54
2017-11-29T06:36:07.922Z,1006.56
2017-11-29T06:37:09.801Z,1006.56
2017-11-29T06:38:11.680Z,1006.57
2017-11-29T06:39:25.826Z,1006.57
2017-11-29T06:40:27.702Z,1006.60
2017-11-29T06:41:29.580Z,1006.57
2017-11-29T06:42:31.456Z,1006.57
2017-11-29T06:43:33.267Z,1006.57
2017-11-29T06:44:35.081Z,1006.60
2017-11-29T06:45:36.960Z,1006.59
2017-11-29T06:46:38.838Z,1006.61
2017-11-29T06:47:40.719Z,1006.59
2017-11-29T06:48:54.866Z,1006.63
2017-11-29T06:49:56.742Z,1006.66
2017-11-29T06:50:58.623Z,1006.61
2017-11-29T06:52:00.501Z,1006.61
2017-11-29T06:53:02.321Z,1006.56
2017-11-29T06:54:04.135Z,1006.56
2017-11-29T06:55:06.020Z,1006.59
2017-11-29T06:56:07.899Z,1006.57
2017-11-29T06:57:09.780Z,1006.60
2017-11-29T06:58:23.988Z,1006.64
2017-11-29T06:59:25.859Z,1006.63
2017-11-29T07:00:27.742Z,1006.64
2017-11-29T07:01:29.627Z,1006.66
2017-11-29T07:02:31.438Z,1006.71
2017-11-29T07:03:33.270Z,1006.68
2017-11-29T07:04:35.137Z,1006.73
2017-11-29T07:05:37.027Z,1006.67
2017-11-29T07:06:38.902Z,1006.65
2017-11-29T07:07:53.053Z,1006.71
2017-11-29T07:08:54.930Z,1006.71
2017-11-29T07:09:56.809Z,1006.68
2017-11-29T07:10:58.689Z,1006.67
2017-11-29T07:12:00.504Z,1006.70
2017-11-29T07:13:02.321Z,1006.70
2017-11-29T07:14:04.204Z,1006.74
2017-11-29T07:15:06.085Z,1006.71
2017-11-29T07:16:07.971Z,1006.71
2017-11-29T07:17:22.114Z,1006.74
2017-11-29T07:18:23.991Z,1006.74
2017-11-29T07:19:25.872Z,1006.74
2017-11-29T07:20:27.754Z,1006.76
2017-11-29T07:21:29.575Z,1006.81
2017-11-29T07:22:31.384Z,1006.79
2017-11-29T07:23:33.267Z,1006.80
2017-11-29T07:24:35.148Z,1006.81
2017-11-29T07:25:37.028Z,1006.85
2017-11-29T07:26:51.177Z,1006.91
2017-11-29T07:27:53.055Z,1006.89
2017-11-29T07:28:54.948Z,1006.90
2017-11-29T07:29:56.841Z,1006.92
2017-11-29T07:30:58.647Z,1006.93
2017-11-29T07:32:00.465Z,1006.93
2017-11-29T07:33:02.344Z,1006.92
2017-11-29T07:34:04.229Z,1006.98
2017-11-29T07:35:06.110Z,1006.96
2017-11-29T07:36:20.264Z,1006.99
2017-11-29T07:37:22.142Z,1006.98
2017-11-29T07:38:24.026Z,1006.99
2017-11-29T07:39:25.906Z,1007.01
2017-11-29T07:40:27.723Z,1007.03
2017-11-29T07:41:29.535Z,1007.03
2017-11-29T07:42:31.417Z,1007.00
2017-11-29T07:43:33.299Z,1006.99
2017-11-29T07:44:35.186Z,1006.97
2017-11-29T07:45:49.326Z,1006.92
2017-11-29T07:46:51.205Z,1006.94
2017-11-29T07:47:53.086Z,1006.89
2017-11-29T07:48:54.967Z,1006.90
2017-11-29T07:49:56.784Z,1006.90
2017-11-29T07:50:58.598Z,1006.86
2017-11-29T07:52:00.482Z,1006.87
2017-11-29T07:53:02.365Z,1006.88
2017-11-29T07:54:04.258Z,1006.90
2017-11-29T07:55:18.403Z,1006.90
2017-11-29T07:56:20.282Z,1006.90
2017-11-29T07:57:22.168Z,1006.91
2017-11-29T07:58:24.046Z,1006.91
2017-11-29T07:59:25.871Z,1006.94
2017-11-29T08:00:27.678Z,1006.96
2017-11-29T08:01:29.560Z,1006.96
2017-11-29T08:02:31.441Z,1006.95
2017-11-29T08:03:33.326Z,1006.97
2017-11-29T08:04:47.456Z,1006.98
2017-11-29T08:05:49.297Z,1007.01
2017-11-29T08:06:51.180Z,1007.02
2017-11-29T08:07:53.061Z,1007.05
2017-11-29T08:08:54.923Z,1007.04
2017-11-29T08:09:56.735Z,1007.05
2017-11-29T08:10:58.551Z,1007.05
2017-11-29T08:12:00.441Z,1007.07
2017-11-29T08:13:02.325Z,1007.11
2017-11-29T08:14:16.514Z,1007.12
2017-11-29T08:15:18.392Z,1007.11
2017-11-29T08:16:20.274Z,1007.15
2017-11-29T08:17:22.159Z,1007.13
2017-11-29T08:18:23.973Z,1007.12
2017-11-29T08:19:25.788Z,1007.14
2017-11-29T08:20:27.747Z,1007.08
2017-11-29T08:21:29.554Z,1007.12
2017-11-29T08:22:31.436Z,1007.15
2017-11-29T08:23:45.587Z,1007.12
2017-11-29T08:24:47.466Z,1007.13
2017-11-29T08:25:49.357Z,1007.12
2017-11-29T08:26:51.236Z,1007.11
2017-11-29T08:27:53.050Z,1007.09
2017-11-29T08:28:54.867Z,1007.10
2017-11-29T08:29:56.748Z,1007.13
2017-11-29T08:30:58.633Z,1007.12
2017-11-29T08:32:00.513Z,1007.16
2017-11-29T08:33:14.714Z,1007.16
2017-11-29T08:34:16.593Z,1007.20
2017-11-29T08:35:18.478Z,1007.22
2017-11-29T08:36:20.362Z,1007.23
2017-11-29T08:37:22.177Z,1007.22
2017-11-29T08:38:23.996Z,1007.20
2017-11-29T08:39:25.878Z,1007.22
2017-11-29T08:40:27.761Z,1007.20
2017-11-29T08:41:29.643Z,1007.21
2017-11-29T08:42:43.848Z,1007.20
2017-11-29T08:43:45.722Z,1007.20
2017-11-29T08:44:47.609Z,1007.26
2017-11-29T08:45:49.493Z,1007.23
2017-11-29T08:46:51.310Z,1007.23
2017-11-29T08:47:53.126Z,1007.17
2017-11-29T08:48:55.008Z,1007.21
2017-11-29T08:49:56.891Z,1007.24
2017-11-29T08:50:58.781Z,1007.26
2017-11-29T08:52:12.978Z,1007.26
2017-11-29T08:53:14.858Z,1007.26
2017-11-29T08:54:16.739Z,1007.23
2017-11-29T08:55:18.625Z,1007.30
2017-11-29T08:56:20.442Z,1007.32
2017-11-29T08:57:22.292Z,1007.33
2017-11-29T08:58:24.142Z,1007.36
2017-11-29T08:59:26.025Z,1007.39
2017-11-29T09:00:27.907Z,1007.38
2017-11-29T09:01:42.058Z,1007.41
2017-11-29T09:02:43.937Z,1007.38
2017-11-29T09:03:45.821Z,1007.41
2017-11-29T09:04:47.703Z,1007.40
2017-11-29T09:05:49.517Z,1007.41
2017-11-29T09:06:51.334Z,1007.44
2017-11-29T09:07:53.215Z,1007.46
2017-11-29T09:08:55.100Z,1007.45
2017-11-29T09:09:56.983Z,1007.42
2017-11-29T09:11:11.135Z,1007.44
2017-11-29T09:12:13.015Z,1007.49
2017-11-29T09:13:14.899Z,1007.45
2017-11-29T09:14:16.782Z,1007.48
2017-11-29T09:15:18.598Z,1007.48
2017-11-29T09:16:20.437Z,1007.50
2017-11-29T09:17:22.303Z,1007.51
2017-11-29T09:18:24.179Z,1007.55
2017-11-29T09:19:26.060Z,1007.54
2017-11-29T09:20:40.212Z,1007.55
2017-11-29T09:21:42.092Z,1007.64
2017-11-29T09:22:43.980Z,1007.60
2017-11-29T09:23:45.860Z,1007.56
2017-11-29T09:24:47.675Z,1007.57
2017-11-29T09:25:49.492Z,1007.56
2017-11-29T09:26:51.372Z,1007.54
2017-11-29T09:27:53.259Z,1007.51
2017-11-29T09:28:55.140Z,1007.48
2017-11-29T09:30:09.289Z,1007.48
2017-11-29T09:31:11.169Z,1007.48
2017-11-29T09:32:13.052Z,1007.54
2017-11-29T09:33:14.936Z,1007.57
2017-11-29T09:34:16.752Z,1007.52
2017-11-29T09:35:18.568Z,1007.54
2017-11-29T09:36:20.453Z,1007.55
2017-11-29T09:37:22.336Z,1007.54
2017-11-29T09:38:24.221Z,1007.53
2017-11-29T09:39:38.381Z,1007.58
2017-11-29T09:40:40.251Z,1007.56
2017-11-29T09:41:42.134Z,1007.54
2017-11-29T09:42:44.019Z,1007.55
2017-11-29T09:43:45.835Z,1007.53
2017-11-29T09:44:47.651Z,1007.58
2017-11-29T09:45:49.532Z,1007.56
2017-11-29T09:46:51.416Z,1007.57
2017-11-29T09:47:53.260Z,1007.59
2017-11-29T09:49:07.408Z,1007.62
2017-11-29T09:50:09.289Z,1007.59
2017-11-29T09:51:11.173Z,1007.61
2017-11-29T09:52:13.055Z,1007.57
2017-11-29T09:53:14.872Z,1007.53
2017-11-29T09:54:16.693Z,1007.54
2017-11-29T09:55:18.578Z,1007.52
2017-11-29T09:56:20.461Z,1007.52
2017-11-29T09:57:22.343Z,1007.47
2017-11-29T09:58:36.540Z,1007.54
2017-11-29T09:59:38.425Z,1007.54
2017-11-29T10:00:40.302Z,1007.50
2017-11-29T10:01:42.189Z,1007.50
2017-11-29T10:02:44.011Z,1007.46
2017-11-29T10:03:45.828Z,1007.45
2017-11-29T10:04:47.715Z,1007.43
2017-11-29T10:05:49.611Z,1007.44
2017-11-29T10:06:51.477Z,1007.46
2017-11-29T10:08:05.629Z,1007.41
2017-11-29T10:09:07.517Z,1007.43
2017-11-29T10:10:09.390Z,1007.42
2017-11-29T10:11:11.272Z,1007.47
2017-11-29T10:12:13.091Z,1007.46
2017-11-29T10:13:14.906Z,1007.47
2017-11-29T10:14:16.792Z,1007.48
2017-11-29T10:15:18.673Z,1007.46
2017-11-29T10:16:20.555Z,1007.41
2017-11-29T10:17:34.708Z,1007.45
2017-11-29T10:18:36.586Z,1007.47
2017-11-29T10:19:38.471Z,1007.44
2017-11-29T10:20:40.354Z,1007.46
2017-11-29T10:21:42.176Z,1007.43
2017-11-29T10:22:43.984Z,1007.37
2017-11-29T10:23:45.824Z,1007.38
2017-11-29T10:24:47.669Z,1007.34
2017-11-29T10:25:49.492Z,1007.26
2017-11-29T10:27:03.690Z,1007.25
2017-11-29T10:28:05.572Z,1007.24
2017-11-29T10:29:07.452Z,1007.19
2017-11-29T10:30:09.335Z,1007.16
2017-11-29T10:31:11.156Z,1007.16
2017-11-29T10:32:12.979Z,1007.13
2017-11-29T10:33:14.859Z,1007.12
2017-11-29T10:34:16.744Z,1007.12
2017-11-29T10:35:18.628Z,1007.11
2017-11-29T10:36:32.780Z,1007.10
2017-11-29T10:37:34.659Z,1007.14
2017-11-29T10:38:36.545Z,1007.15
2017-11-29T10:39:38.428Z,1007.13
2017-11-29T10:40:40.251Z,1007.12
2017-11-29T10:41:42.072Z,1007.09
2017-11-29T10:42:43.953Z,1007.11
2017-11-29T10:43:45.842Z,1007.10
2017-11-29T10:44:47.722Z,1007.13
2017-11-29T10:46:01.922Z,1007.15
2017-11-29T10:47:03.804Z,1007.13
2017-11-29T10:48:05.690Z,1007.16
2017-11-29T10:49:07.573Z,1007.14
2017-11-29T10:50:09.395Z,1007.18
2017-11-29T10:51:11.215Z,1007.16
2017-11-29T10:52:13.098Z,1007.17
2017-11-29T10:53:14.982Z,1007.11
2017-11-29T10:54:16.866Z,1007.12
2017-11-29T10:55:31.068Z,1007.13
2017-11-29T10:56:32.949Z,1007.14
2017-11-29T10:57:34.832Z,1007.18
2017-11-29T10:58:36.716Z,1007.16
2017-11-29T10:59:38.533Z,1007.19
2017-11-29T11:00:40.353Z,1007.17
2017-11-29T11:01:42.233Z,1007.17
2017-11-29T11:02:44.122Z,1007.17
2017-11-29T11:03:46.009Z,1007.15
2017-11-29T11:05:00.209Z,1007.18
2017-11-29T11:06:02.096Z,1007.15
2017-11-29T11:07:03.974Z,1007.12
2017-11-29T11:08:05.858Z,1007.12
2017-11-29T11:09:07.678Z,1007.11
2017-11-29T11:10:09.533Z,1007.16
2017-11-29T11:11:11.423Z,1007.15
2017-11-29T11:12:13.307Z,1007.12
2017-11-29T11:13:15.191Z,1007.16
2017-11-29T11:14:29.349Z,1007.14
2017-11-29T11:15:31.230Z,1007.14
2017-11-29T11:16:33.115Z,1007.16
2017-11-29T11:17:35.008Z,1007.12
2017-11-29T11:18:36.822Z,1007.11
2017-11-29T11:19:38.639Z,1007.09
2017-11-29T11:20:40.522Z,1007.10
2017-11-29T11:21:42.412Z,1007.08
2017-11-29T11:22:44.291Z,1007.10
2017-11-29T11:23:58.495Z,1007.10
2017-11-29T11:25:00.376Z,1007.14
2017-11-29T11:26:02.257Z,1007.07
2017-11-29T11:27:04.143Z,1007.10
2017-11-29T11:28:05.980Z,1007.11
2017-11-29T11:29:07.802Z,1007.11
2017-11-29T11:30:09.700Z,1007.11
2017-11-29T11:31:11.571Z,1007.10
2017-11-29T11:32:13.458Z,1007.10
2017-11-29T11:33:27.637Z,1007.09
2017-11-29T11:34:29.546Z,1007.09
2017-11-29T11:35:31.431Z,1007.12
2017-11-29T11:36:33.310Z,1007.03
2017-11-29T11:37:35.127Z,1007.07
2017-11-29T11:38:36.947Z,1007.03
2017-11-29T11:39:38.830Z,1007.02
2017-11-29T11:40:40.714Z,1007.03
2017-11-29T11:41:42.605Z,1007.06
2017-11-29T11:42:56.800Z,1007.04
2017-11-29T11:43:58.834Z,1007.05
2017-11-29T11:45:00.717Z,1007.09
2017-11-29T11:46:02.600Z,1007.07
2017-11-29T11:47:04.418Z,1007.02
2017-11-29T11:48:06.237Z,1006.99
2017-11-29T11:49:08.132Z,1006.96
2017-11-29T11:50:10.025Z,1006.98
2017-11-29T11:51:11.893Z,1006.96
2017-11-29T11:52:26.047Z,1006.92
2017-11-29T11:53:27.927Z,1006.89
2017-11-29T11:54:29.813Z,1006.91
2017-11-29T11:55:31.696Z,1006.90
2017-11-29T11:56:33.519Z,1006.89
2017-11-29T11:57:35.338Z,1006.86
2017-11-29T11:58:37.225Z,1006.86
2017-11-29T11:59:39.113Z,1006.86
2017-11-29T12:00:40.996Z,1006.86
2017-11-29T12:01:55.150Z,1006.88
2017-11-29T12:02:57.031Z,1006.91
2017-11-29T12:03:58.915Z,1006.90
2017-11-29T12:05:00.799Z,1006.87
2017-11-29T12:06:02.616Z,1006.87
2017-11-29T12:07:04.436Z,1006.87
2017-11-29T12:08:06.318Z,1006.87
2017-11-29T12:09:08.208Z,1006.88
2017-11-29T12:10:10.091Z,1006.84
2017-11-29T12:11:24.240Z,1006.84
2017-11-29T12:12:26.120Z,1006.81
2017-11-29T12:13:28.012Z,1006.83
2017-11-29T12:14:29.891Z,1006.82
2017-11-29T12:15:31.710Z,1006.78
2017-11-29T12:16:33.530Z,1006.78
2017-11-29T12:17:35.426Z,1006.79
2017-11-29T12:18:37.309Z,1006.82
2017-11-29T12:19:39.193Z,1006.79
2017-11-29T12:20:53.353Z,1006.79
2017-11-29T12:21:55.262Z,1006.80
2017-11-29T12:22:57.147Z,1006.80
2017-11-29T12:23:59.031Z,1006.83
2017-11-29T12:25:00.850Z,1006.84
2017-11-29T12:26:02.671Z,1006.85
2017-11-29T12:27:04.555Z,1006.86
2017-11-29T12:28:06.443Z,1006.85
2017-11-29T12:29:08.328Z,1006.84
2017-11-29T12:30:22.482Z,1006.86
2017-11-29T12:31:24.362Z,1006.76
2017-11-29T12:32:26.251Z,1006.78
2017-11-29T12:33:28.136Z,1006.76
2017-11-29T12:34:29.954Z,1006.75
2017-11-29T12:35:31.773Z,1006.76
2017-11-29T12:36:33.655Z,1006.75
2017-11-29T12:37:35.543Z,1006.73
2017-11-29T12:38:37.428Z,1006.76
2017-11-29T12:39:51.578Z,1006.79
2017-11-29T12:40:53.469Z,1006.75
2017-11-29T12:41:55.344Z,1006.73
2017-11-29T12:42:57.227Z,1006.73
2017-11-29T12:43:59.045Z,1006.75
2017-11-29T12:45:00.864Z,1006.76